Weather at Fergus (Vodarek Field)

Public forecast

Using degrees Celsius for public forecast. Weather courtesy of forecast.io.

Closest aviation weather report (METAR) to Fergus (Vodarek Field)

Closest report is Waterloo Airport, 16.2 nm (30.1 km) SSW. Retrieved 2021/01/17 02:28 UTC (9 minutes ago):

CYKF 170228Z AUTO 26010KT 9SM SCT016 OVC023 M01/M03 A2948 RMK SLP994

Closest aviation forecast (TAF) to Fergus (Vodarek Field)

Closest forecast is Waterloo Airport, 16.2 nm (30.1 km) SSW. Retrieved 2021-01-17 02:39 UTC (0 seconds ago):

TAF CYKF 170138Z 1702/1714 27010G20KT P6SM OVC015 TEMPO 1702/1705 5SM -SN BKN008 FM170500 26012G25KT 4SM -SN BR BKN006 TEMPO 1705/1714 6SM BR BKN010 PROB30 1705/1714 2SM -FZDZ BR RMK FCST BASED ON AUTO OBS NXT FCST BY 170800Z